createdAt,value
2018-07-12T00:00:55.047Z,962.34
2018-07-12T00:01:54.999Z,962.32
2018-07-12T00:02:55.018Z,962.30
2018-07-12T00:03:54.997Z,962.26
2018-07-12T00:04:54.998Z,962.26
2018-07-12T00:05:55.017Z,962.25
2018-07-12T00:06:55.000Z,962.20
2018-07-12T00:07:55.013Z,962.18
2018-07-12T00:08:55.006Z,962.19
2018-07-12T00:09:55.006Z,962.19
2018-07-12T00:10:55.006Z,962.20
2018-07-12T00:11:55.006Z,962.17
2018-07-12T00:12:55.011Z,962.22
2018-07-12T00:13:55.027Z,962.26
2018-07-12T00:14:55.012Z,962.26
2018-07-12T00:15:55.026Z,962.22
2018-07-12T00:16:55.009Z,962.22
2018-07-12T00:17:55.010Z,962.25
2018-07-12T00:18:55.010Z,962.20
2018-07-12T00:19:55.013Z,962.23
2018-07-12T00:20:55.011Z,962.22
2018-07-12T00:21:55.010Z,962.25
2018-07-12T00:22:55.018Z,962.26
2018-07-12T00:23:55.014Z,962.27
2018-07-12T00:24:55.016Z,962.28
2018-07-12T00:25:55.012Z,962.26
2018-07-12T00:26:55.017Z,962.27
2018-07-12T00:27:55.016Z,962.23
2018-07-12T00:28:55.016Z,962.27
2018-07-12T00:29:55.019Z,962.25
2018-07-12T00:30:55.016Z,962.22
2018-07-12T00:31:55.022Z,962.23
2018-07-12T00:32:55.017Z,962.26
2018-07-12T00:33:55.037Z,962.26
2018-07-12T00:34:55.044Z,962.20
2018-07-12T00:35:55.020Z,962.19
2018-07-12T00:36:55.025Z,962.16
2018-07-12T00:37:55.031Z,962.17
2018-07-12T00:38:55.026Z,962.20
2018-07-12T00:39:55.026Z,962.24
2018-07-12T00:40:55.029Z,962.25
2018-07-12T00:41:55.025Z,962.26
2018-07-12T00:42:55.027Z,962.24
2018-07-12T00:43:55.029Z,962.29
2018-07-12T00:44:55.027Z,962.28
2018-07-12T00:45:55.029Z,962.28
2018-07-12T00:46:55.033Z,962.27
2018-07-12T00:47:55.036Z,962.24
2018-07-12T00:48:55.030Z,962.29
2018-07-12T00:49:55.050Z,962.30
2018-07-12T00:50:55.033Z,962.27
2018-07-12T00:51:55.037Z,962.33
2018-07-12T00:52:55.034Z,962.33
2018-07-12T00:53:55.030Z,962.34
2018-07-12T00:54:55.042Z,962.30
2018-07-12T00:55:55.035Z,962.27
2018-07-12T00:56:55.036Z,962.30
2018-07-12T00:57:55.039Z,962.31
2018-07-12T00:58:55.056Z,962.30
2018-07-12T00:59:55.039Z,962.30
2018-07-12T01:00:55.037Z,962.29
2018-07-12T01:01:55.040Z,962.28
2018-07-12T01:02:55.052Z,962.28
2018-07-12T01:03:55.042Z,962.30
2018-07-12T01:04:55.062Z,962.27
2018-07-12T01:05:55.041Z,962.28
2018-07-12T01:06:55.045Z,962.35
2018-07-12T01:07:55.046Z,962.33
2018-07-12T01:08:55.057Z,962.35
2018-07-12T01:09:55.040Z,962.35
2018-07-12T01:10:55.047Z,962.38
2018-07-12T01:11:55.048Z,962.42
2018-07-12T01:12:55.045Z,962.40
2018-07-12T01:13:55.078Z,962.38
2018-07-12T01:14:55.072Z,962.41
2018-07-12T01:15:55.111Z,962.42
2018-07-12T01:16:55.052Z,962.43
2018-07-12T01:17:55.055Z,962.41
2018-07-12T01:18:55.094Z,962.41
2018-07-12T01:19:55.054Z,962.41
2018-07-12T01:20:55.056Z,962.42
2018-07-12T01:21:55.054Z,962.47
2018-07-12T01:22:55.053Z,962.45
2018-07-12T01:23:55.059Z,962.46
2018-07-12T01:24:55.052Z,962.52
2018-07-12T01:25:55.054Z,962.52
2018-07-12T01:26:55.057Z,962.47
2018-07-12T01:27:55.056Z,962.51
2018-07-12T01:28:55.056Z,962.45
2018-07-12T01:29:55.057Z,962.36
2018-07-12T01:30:55.057Z,962.31
2018-07-12T01:31:55.060Z,962.29
2018-07-12T01:32:55.060Z,962.32
2018-07-12T01:33:55.063Z,962.37
2018-07-12T01:34:55.060Z,962.35
2018-07-12T01:35:55.060Z,962.44
2018-07-12T01:36:55.060Z,962.41
2018-07-12T01:37:55.061Z,962.42
2018-07-12T01:38:55.067Z,962.36
2018-07-12T01:39:55.067Z,962.39
2018-07-12T01:40:55.066Z,962.35
2018-07-12T01:41:55.066Z,962.44
2018-07-12T01:42:55.066Z,962.46
2018-07-12T01:43:55.068Z,962.42
2018-07-12T01:44:55.065Z,962.46
2018-07-12T01:45:55.075Z,962.43
2018-07-12T01:46:55.067Z,962.44
2018-07-12T01:47:55.071Z,962.44
2018-07-12T01:48:55.070Z,962.43
2018-07-12T01:49:55.079Z,962.42
2018-07-12T01:50:55.067Z,962.44
2018-07-12T01:51:55.073Z,962.44
2018-07-12T01:52:55.071Z,962.44
2018-07-12T01:53:55.072Z,962.48
2018-07-12T01:54:55.087Z,962.47
2018-07-12T01:55:55.079Z,962.54
2018-07-12T01:56:55.074Z,962.51
2018-07-12T01:57:55.076Z,962.48
2018-07-12T01:58:55.077Z,962.44
2018-07-12T01:59:55.079Z,962.42
2018-07-12T02:00:55.075Z,962.40
2018-07-12T02:01:55.078Z,962.48
2018-07-12T02:02:55.080Z,962.45
2018-07-12T02:03:55.081Z,962.48
2018-07-12T02:04:55.081Z,962.46
2018-07-12T02:05:55.081Z,962.45
2018-07-12T02:06:55.081Z,962.41
2018-07-12T02:07:55.087Z,962.40
2018-07-12T02:08:55.085Z,962.39
2018-07-12T02:09:55.084Z,962.34
2018-07-12T02:10:55.088Z,962.35
2018-07-12T02:11:55.094Z,962.28
2018-07-12T02:12:55.089Z,962.29
2018-07-12T02:13:55.089Z,962.27
2018-07-12T02:14:55.086Z,962.23
2018-07-12T02:15:55.090Z,962.23
2018-07-12T02:16:55.092Z,962.25
2018-07-12T02:17:55.093Z,962.27
2018-07-12T02:18:55.089Z,962.28
2018-07-12T02:19:55.095Z,962.28
2018-07-12T02:20:55.090Z,962.29
2018-07-12T02:21:55.092Z,962.33
2018-07-12T02:22:55.094Z,962.31
2018-07-12T02:23:55.095Z,962.37
2018-07-12T02:24:55.095Z,962.36
2018-07-12T02:25:55.093Z,962.35
2018-07-12T02:26:55.098Z,962.41
2018-07-12T02:27:55.096Z,962.40
2018-07-12T02:28:55.094Z,962.40
2018-07-12T02:29:55.097Z,962.41
2018-07-12T02:30:55.099Z,962.39
2018-07-12T02:31:55.099Z,962.42
2018-07-12T02:32:55.099Z,962.41
2018-07-12T02:33:55.099Z,962.37
2018-07-12T02:34:55.101Z,962.36
2018-07-12T02:35:55.102Z,962.33
2018-07-12T02:36:55.100Z,962.34
2018-07-12T02:37:55.102Z,962.29
2018-07-12T02:38:55.105Z,962.30
2018-07-12T02:39:55.102Z,962.31
2018-07-12T02:40:55.105Z,962.31
2018-07-12T02:41:55.104Z,962.27
2018-07-12T02:42:55.106Z,962.29
2018-07-12T02:43:55.104Z,962.28
2018-07-12T02:44:55.105Z,962.24
2018-07-12T02:45:55.106Z,962.24
2018-07-12T02:46:55.109Z,962.24
2018-07-12T02:47:55.107Z,962.23
2018-07-12T02:48:55.107Z,962.21
2018-07-12T02:49:55.107Z,962.19
2018-07-12T02:50:55.107Z,962.18
2018-07-12T02:51:55.111Z,962.21
2018-07-12T02:52:55.107Z,962.21
2018-07-12T02:53:55.109Z,962.22
2018-07-12T02:54:55.112Z,962.23
2018-07-12T02:55:55.111Z,962.17
2018-07-12T02:56:55.110Z,962.22
2018-07-12T02:57:55.124Z,962.17
2018-07-12T02:58:55.110Z,962.17
2018-07-12T02:59:55.114Z,962.19
2018-07-12T03:00:55.113Z,962.17
2018-07-12T03:01:55.113Z,962.20
2018-07-12T03:02:55.121Z,962.13
2018-07-12T03:03:55.112Z,962.16
2018-07-12T03:04:55.122Z,962.13
2018-07-12T03:05:55.127Z,962.12
2018-07-12T03:06:55.119Z,962.16
2018-07-12T03:07:55.127Z,962.20
2018-07-12T03:08:55.113Z,962.18
2018-07-12T03:09:55.130Z,962.25
2018-07-12T03:10:55.114Z,962.21
2018-07-12T03:11:55.115Z,962.23
2018-07-12T03:12:55.114Z,962.21
2018-07-12T03:13:55.110Z,962.23
2018-07-12T03:14:55.118Z,962.23
2018-07-12T03:15:55.121Z,962.20
2018-07-12T03:16:55.112Z,962.25
2018-07-12T03:17:55.113Z,962.26
2018-07-12T03:18:55.112Z,962.31
2018-07-12T03:19:55.115Z,962.26
2018-07-12T03:20:55.118Z,962.29
2018-07-12T03:21:55.114Z,962.32
2018-07-12T03:22:55.116Z,962.32
2018-07-12T03:23:55.115Z,962.32
2018-07-12T03:24:55.120Z,962.35
2018-07-12T03:25:55.114Z,962.38
2018-07-12T03:26:55.116Z,962.32
2018-07-12T03:27:55.115Z,962.35
2018-07-12T03:28:55.113Z,962.32
2018-07-12T03:29:55.115Z,962.31
2018-07-12T03:30:55.113Z,962.30
2018-07-12T03:31:55.118Z,962.30
2018-07-12T03:32:55.134Z,962.30
2018-07-12T03:33:55.116Z,962.32
2018-07-12T03:34:55.117Z,962.28
2018-07-12T03:35:55.116Z,962.26
2018-07-12T03:36:55.111Z,962.27
2018-07-12T03:37:55.115Z,962.28
2018-07-12T03:38:55.128Z,962.24
2018-07-12T03:39:55.114Z,962.29
2018-07-12T03:40:55.114Z,962.31
2018-07-12T03:41:55.116Z,962.29
2018-07-12T03:42:55.116Z,962.31
2018-07-12T03:43:55.112Z,962.28
2018-07-12T03:44:55.115Z,962.34
2018-07-12T03:45:55.117Z,962.34
2018-07-12T03:46:55.116Z,962.33
2018-07-12T03:47:55.112Z,962.37
2018-07-12T03:48:55.118Z,962.37
2018-07-12T03:49:55.113Z,962.36
2018-07-12T03:50:55.113Z,962.34
2018-07-12T03:51:55.111Z,962.35
2018-07-12T03:52:55.114Z,962.37
2018-07-12T03:53:55.146Z,962.38
2018-07-12T03:54:55.125Z,962.36
2018-07-12T03:55:55.110Z,962.38
2018-07-12T03:56:55.112Z,962.36
2018-07-12T03:57:55.866Z,962.40
2018-07-12T03:58:55.137Z,962.39
2018-07-12T03:59:55.110Z,962.40
2018-07-12T04:00:55.147Z,962.38
2018-07-12T04:01:55.112Z,962.43
2018-07-12T04:02:55.109Z,962.41
2018-07-12T04:03:55.109Z,962.45
2018-07-12T04:04:55.113Z,962.46
2018-07-12T04:05:55.117Z,962.48
2018-07-12T04:06:55.112Z,962.50
2018-07-12T04:07:55.111Z,962.53
2018-07-12T04:08:55.110Z,962.56
2018-07-12T04:09:55.113Z,962.55
2018-07-12T04:10:55.126Z,962.56
2018-07-12T04:11:55.111Z,962.56
2018-07-12T04:12:55.119Z,962.61
2018-07-12T04:13:55.111Z,962.61
2018-07-12T04:14:55.110Z,962.62
2018-07-12T04:15:55.114Z,962.65
2018-07-12T04:16:55.110Z,962.66
2018-07-12T04:17:55.110Z,962.66
2018-07-12T04:18:55.111Z,962.68
2018-07-12T04:19:55.111Z,962.69
2018-07-12T04:20:55.112Z,962.66
2018-07-12T04:21:55.112Z,962.69
2018-07-12T04:22:55.113Z,962.69
2018-07-12T04:23:55.115Z,962.66
2018-07-12T04:24:55.132Z,962.67
2018-07-12T04:25:55.112Z,962.65
2018-07-12T04:26:55.124Z,962.64
2018-07-12T04:27:55.118Z,962.64
2018-07-12T04:28:55.113Z,962.64
2018-07-12T04:29:55.111Z,962.65
2018-07-12T04:30:55.114Z,962.62
2018-07-12T04:31:55.126Z,962.62
2018-07-12T04:32:55.115Z,962.60
2018-07-12T04:33:55.380Z,962.58
2018-07-12T04:34:55.119Z,962.63
2018-07-12T04:35:55.116Z,962.63
2018-07-12T04:36:55.117Z,962.58
2018-07-12T04:37:55.116Z,962.62
2018-07-12T04:38:55.117Z,962.59
2018-07-12T04:39:55.117Z,962.63
2018-07-12T04:40:55.119Z,962.62
2018-07-12T04:41:55.118Z,962.61
2018-07-12T04:42:55.118Z,962.63
2018-07-12T04:43:55.127Z,962.65
2018-07-12T04:44:55.119Z,962.61
2018-07-12T04:45:55.118Z,962.66
2018-07-12T04:46:55.119Z,962.63
2018-07-12T04:47:55.120Z,962.63
2018-07-12T04:48:55.119Z,962.63
2018-07-12T04:49:55.119Z,962.63
2018-07-12T04:50:55.121Z,962.66
2018-07-12T04:51:55.121Z,962.70
2018-07-12T04:52:55.122Z,962.71
2018-07-12T04:53:55.123Z,962.66
2018-07-12T04:54:55.126Z,962.70
2018-07-12T04:55:55.125Z,962.70
2018-07-12T04:56:55.123Z,962.70
2018-07-12T04:57:55.126Z,962.67
2018-07-12T04:58:55.126Z,962.68
2018-07-12T04:59:55.125Z,962.69
2018-07-12T05:00:55.127Z,962.69
2018-07-12T05:01:55.128Z,962.68
2018-07-12T05:02:55.134Z,962.69
2018-07-12T05:03:55.130Z,962.67
2018-07-12T05:04:55.130Z,962.71
2018-07-12T05:05:55.128Z,962.76
2018-07-12T05:06:55.129Z,962.75
2018-07-12T05:07:55.130Z,962.76
2018-07-12T05:08:55.133Z,962.76
2018-07-12T05:09:55.132Z,962.78
2018-07-12T05:10:55.132Z,962.78
2018-07-12T05:11:55.134Z,962.77
2018-07-12T05:12:55.138Z,962.77
2018-07-12T05:13:55.135Z,962.79
2018-07-12T05:14:55.136Z,962.74
2018-07-12T05:15:55.136Z,962.72
2018-07-12T05:16:55.137Z,962.75
2018-07-12T05:17:55.141Z,962.75
2018-07-12T05:18:55.140Z,962.77
2018-07-12T05:19:55.139Z,962.74
2018-07-12T05:20:55.142Z,962.81
2018-07-12T05:21:55.188Z,962.78
2018-07-12T05:22:55.143Z,962.75
2018-07-12T05:23:55.143Z,962.77
2018-07-12T05:24:55.143Z,962.73
2018-07-12T05:25:55.147Z,962.77
2018-07-12T05:26:55.153Z,962.73
2018-07-12T05:27:55.149Z,962.73
2018-07-12T05:28:55.149Z,962.70
2018-07-12T05:29:55.150Z,962.74
2018-07-12T05:30:55.162Z,962.81
2018-07-12T05:31:55.162Z,962.78
2018-07-12T05:32:55.154Z,962.80
2018-07-12T05:33:55.157Z,962.80
2018-07-12T05:34:55.160Z,962.80
2018-07-12T05:35:55.160Z,962.82
2018-07-12T05:36:55.158Z,962.85
2018-07-12T05:37:55.161Z,962.87
2018-07-12T05:38:55.223Z,962.94
2018-07-12T05:39:55.187Z,962.97
2018-07-12T05:40:55.166Z,962.97
2018-07-12T05:41:55.168Z,962.96
2018-07-12T05:42:55.168Z,963.01
2018-07-12T05:43:55.173Z,963.01
2018-07-12T05:44:55.173Z,962.98
2018-07-12T05:45:55.172Z,963.01
2018-07-12T05:46:55.177Z,962.96
2018-07-12T05:47:55.175Z,962.98
2018-07-12T05:48:55.175Z,963.03
2018-07-12T05:49:55.175Z,963.01
2018-07-12T05:50:55.179Z,963.04
2018-07-12T05:51:55.181Z,963.04
2018-07-12T05:52:55.183Z,963.05
2018-07-12T05:53:55.180Z,963.04
2018-07-12T05:54:55.184Z,963.10
2018-07-12T05:55:55.190Z,963.15
2018-07-12T05:56:55.187Z,963.11
2018-07-12T05:57:55.188Z,963.10
2018-07-12T05:58:55.190Z,963.16
2018-07-12T05:59:55.192Z,963.13
2018-07-12T06:00:55.196Z,963.13
2018-07-12T06:01:55.193Z,963.09
2018-07-12T06:02:55.209Z,963.10
2018-07-12T06:03:55.196Z,963.13
2018-07-12T06:04:55.198Z,963.15
2018-07-12T06:05:55.200Z,963.07
2018-07-12T06:06:55.201Z,963.11
2018-07-12T06:07:55.202Z,963.10
2018-07-12T06:08:55.201Z,963.12
2018-07-12T06:09:55.204Z,963.02
2018-07-12T06:10:55.207Z,963.05
2018-07-12T06:11:55.208Z,963.08
2018-07-12T06:12:55.213Z,963.11
2018-07-12T06:13:57.779Z,963.07
2018-07-12T06:14:55.213Z,963.11
2018-07-12T06:15:55.216Z,963.11
2018-07-12T06:16:55.214Z,963.13
2018-07-12T06:17:55.221Z,963.12
2018-07-12T06:18:55.235Z,963.12
2018-07-12T06:19:55.222Z,963.10
2018-07-12T06:20:55.223Z,963.13
2018-07-12T06:21:55.227Z,963.12
2018-07-12T06:22:55.227Z,963.12
2018-07-12T06:23:55.224Z,963.15
2018-07-12T06:24:55.228Z,963.14
2018-07-12T06:25:55.231Z,963.11
2018-07-12T06:26:55.240Z,963.14
2018-07-12T06:27:55.234Z,963.14
2018-07-12T06:28:55.240Z,963.20
2018-07-12T06:29:55.270Z,963.18
2018-07-12T06:30:55.243Z,963.19
2018-07-12T06:31:55.250Z,963.22
2018-07-12T06:32:55.244Z,963.21
2018-07-12T06:33:55.246Z,963.22
2018-07-12T06:34:55.248Z,963.22
2018-07-12T06:35:55.251Z,963.21
2018-07-12T06:36:55.250Z,963.21
2018-07-12T06:37:55.254Z,963.19
2018-07-12T06:38:55.271Z,963.20
2018-07-12T06:39:55.260Z,963.26
2018-07-12T06:40:55.261Z,963.26
2018-07-12T06:41:55.263Z,963.19
2018-07-12T06:42:55.266Z,963.24
2018-07-12T06:43:55.268Z,963.22
2018-07-12T06:44:55.270Z,963.22
2018-07-12T06:45:55.272Z,963.25
2018-07-12T06:46:55.275Z,963.27
2018-07-12T06:47:55.278Z,963.28
2018-07-12T06:48:55.279Z,963.30
2018-07-12T06:49:55.295Z,963.31
2018-07-12T06:50:55.282Z,963.33
2018-07-12T06:51:55.286Z,963.37
2018-07-12T06:52:55.347Z,963.31
2018-07-12T06:53:55.305Z,963.37
2018-07-12T06:54:55.292Z,963.38
2018-07-12T06:55:55.297Z,963.41
2018-07-12T06:56:55.297Z,963.40
2018-07-12T06:57:55.303Z,963.45
2018-07-12T06:58:55.302Z,963.50
2018-07-12T06:59:55.305Z,963.45
2018-07-12T07:00:55.307Z,963.49
2018-07-12T07:01:55.310Z,963.48
2018-07-12T07:02:55.315Z,963.59
2018-07-12T07:03:55.316Z,963.53
2018-07-12T07:04:55.367Z,963.57
2018-07-12T07:05:55.377Z,963.56
2018-07-12T07:06:55.331Z,963.52
2018-07-12T07:07:55.340Z,963.53
2018-07-12T07:08:55.550Z,963.50
2018-07-12T07:09:55.340Z,963.53
2018-07-12T07:10:55.340Z,963.54
2018-07-12T07:11:55.346Z,963.48
2018-07-12T07:12:55.348Z,963.49
2018-07-12T07:13:55.353Z,963.49
2018-07-12T07:14:55.357Z,963.45
2018-07-12T07:15:55.369Z,963.44
2018-07-12T07:16:55.364Z,963.47
2018-07-12T07:17:55.368Z,963.42
2018-07-12T07:18:55.374Z,963.50
2018-07-12T07:19:55.383Z,963.40
2018-07-12T07:20:55.380Z,963.39
2018-07-12T07:21:55.392Z,963.45
2018-07-12T07:22:56.240Z,963.45
2018-07-12T07:23:55.394Z,963.47
2018-07-12T07:24:55.400Z,963.49
2018-07-12T07:25:55.405Z,963.47
2018-07-12T07:26:55.422Z,963.51
2018-07-12T07:27:55.413Z,963.47
2018-07-12T07:28:55.419Z,963.42
2018-07-12T07:29:55.422Z,963.52
2018-07-12T07:30:55.427Z,963.46
2018-07-12T07:31:55.437Z,963.43
2018-07-12T07:32:55.693Z,963.46
2018-07-12T07:33:55.534Z,963.50
2018-07-12T07:34:55.654Z,963.47
2018-07-12T07:35:55.760Z,963.37
2018-07-12T07:36:55.700Z,963.47
2018-07-12T07:37:55.641Z,963.50
2018-07-12T07:38:55.541Z,963.54
2018-07-12T07:39:55.491Z,963.54
2018-07-12T07:40:55.479Z,963.50
2018-07-12T07:41:55.482Z,963.53
2018-07-12T07:42:55.512Z,963.56
2018-07-12T07:43:55.602Z,963.58
2018-07-12T07:44:55.602Z,963.53
2018-07-12T07:45:55.596Z,963.59
2018-07-12T07:46:55.515Z,963.51
2018-07-12T07:47:55.520Z,963.61
2018-07-12T07:48:55.565Z,963.56
2018-07-12T07:49:55.528Z,963.63
2018-07-12T07:50:55.537Z,963.64
2018-07-12T07:51:55.545Z,963.61
2018-07-12T07:52:55.546Z,963.68
2018-07-12T07:53:55.553Z,963.69
2018-07-12T07:54:55.562Z,963.70
2018-07-12T07:55:55.566Z,963.64
2018-07-12T07:56:55.571Z,963.75
2018-07-12T07:57:55.580Z,963.79
2018-07-12T07:58:55.584Z,963.79
2018-07-12T07:59:55.602Z,963.69
2018-07-12T08:00:55.621Z,963.77
2018-07-12T08:01:55.607Z,963.80
2018-07-12T08:02:55.666Z,963.78
2018-07-12T08:03:55.619Z,963.74
2018-07-12T08:04:55.665Z,963.77
2018-07-12T08:05:55.632Z,963.75
2018-07-12T08:06:55.639Z,963.77
2018-07-12T08:07:55.648Z,963.80
2018-07-12T08:08:55.654Z,963.92
2018-07-12T08:09:55.660Z,963.83
2018-07-12T08:10:55.670Z,963.85
2018-07-12T08:11:55.673Z,963.88
2018-07-12T08:12:55.680Z,963.82
2018-07-12T08:13:55.687Z,963.82
2018-07-12T08:14:55.699Z,963.77
2018-07-12T08:15:55.703Z,963.75
2018-07-12T08:16:55.706Z,963.76
2018-07-12T08:17:55.712Z,963.71
2018-07-12T08:18:55.720Z,963.72
2018-07-12T08:19:55.727Z,963.69
2018-07-12T08:20:55.733Z,963.85
2018-07-12T08:21:55.740Z,963.78
2018-07-12T08:22:56.104Z,963.89
2018-07-12T08:23:55.962Z,963.84
2018-07-12T08:24:55.944Z,963.73
2018-07-12T08:25:56.003Z,963.89
2018-07-12T08:26:56.077Z,963.89
2018-07-12T08:27:55.946Z,963.72
2018-07-12T08:28:55.781Z,963.81
2018-07-12T08:29:58.561Z,963.72
2018-07-12T08:30:56.169Z,963.73
2018-07-12T08:31:57.927Z,963.72
2018-07-12T08:32:56.138Z,963.63
2018-07-12T08:33:56.157Z,963.58
2018-07-12T08:35:04.502Z,963.54
2018-07-12T08:36:56.445Z,963.76
2018-07-12T08:37:49.532Z,963.74
2018-07-12T08:38:49.771Z,963.82
2018-07-12T08:39:49.481Z,963.60
2018-07-12T08:40:49.363Z,963.80
2018-07-12T08:41:49.308Z,963.60
2018-07-12T08:42:49.368Z,963.51
2018-07-12T08:43:49.341Z,963.84
2018-07-12T08:44:49.335Z,963.65
2018-07-12T08:45:49.335Z,963.90
2018-07-12T08:46:49.344Z,963.69
2018-07-12T08:47:49.351Z,963.90
2018-07-12T08:48:49.365Z,963.68
2018-07-12T08:49:49.365Z,963.70
2018-07-12T08:50:49.372Z,963.69
2018-07-12T08:51:49.398Z,963.70
2018-07-12T08:52:49.399Z,963.72
2018-07-12T08:53:49.403Z,963.71
2018-07-12T08:54:49.496Z,963.73
2018-07-12T08:55:49.426Z,963.72
2018-07-12T08:56:49.434Z,963.66
2018-07-12T08:57:49.433Z,963.86
2018-07-12T08:58:49.441Z,963.90
2018-07-12T08:59:49.442Z,963.79
2018-07-12T09:00:49.449Z,963.77
2018-07-12T09:01:49.452Z,963.73
2018-07-12T09:02:49.510Z,963.76
2018-07-12T09:03:49.469Z,963.77
2018-07-12T09:04:49.475Z,963.82
2018-07-12T09:05:49.485Z,963.75
2018-07-12T09:06:49.486Z,963.77
2018-07-12T09:07:49.502Z,963.77
2018-07-12T09:08:49.507Z,963.78
2018-07-12T09:09:49.505Z,963.72
2018-07-12T09:10:49.513Z,963.73
2018-07-12T09:11:49.527Z,963.82
2018-07-12T09:12:49.531Z,963.82
2018-07-12T09:13:49.530Z,963.84
2018-07-12T09:14:49.560Z,963.82
2018-07-12T09:15:49.632Z,963.81
2018-07-12T09:16:49.547Z,963.81
2018-07-12T09:17:49.557Z,963.79
2018-07-12T09:18:49.559Z,963.80
2018-07-12T09:19:49.564Z,963.81
2018-07-12T09:20:49.567Z,963.84
2018-07-12T09:21:49.741Z,963.83
2018-07-12T09:22:49.584Z,963.80
2018-07-12T09:23:49.586Z,963.78
2018-07-12T09:24:49.594Z,963.83
2018-07-12T09:25:49.595Z,963.83
2018-07-12T09:26:49.609Z,963.81
2018-07-12T09:27:49.610Z,963.83
2018-07-12T09:28:49.625Z,963.79
2018-07-12T09:29:49.621Z,963.83
2018-07-12T09:30:49.696Z,963.85
2018-07-12T09:31:49.630Z,963.83
2018-07-12T09:32:49.636Z,963.81
2018-07-12T09:33:59.336Z,963.85
2018-07-12T09:35:44.246Z,963.86
2018-07-12T09:36:44.150Z,963.88
2018-07-12T09:37:44.250Z,963.88
2018-07-12T09:39:37.164Z,963.87
2018-07-12T09:40:45.423Z,963.93
2018-07-12T09:42:30.569Z,963.94
2018-07-12T09:43:30.549Z,963.89
2018-07-12T09:44:30.555Z,963.94
2018-07-12T09:45:30.592Z,963.94
2018-07-12T09:46:32.566Z,963.90
2018-07-12T09:47:30.626Z,963.93
2018-07-12T09:48:30.586Z,963.94
2018-07-12T09:49:30.592Z,963.91
2018-07-12T09:50:30.591Z,963.88
2018-07-12T09:51:30.592Z,964.04
2018-07-12T09:52:30.596Z,964.02
2018-07-12T09:53:30.602Z,963.99
2018-07-12T09:54:30.607Z,963.98
2018-07-12T09:55:30.626Z,964.02
2018-07-12T09:56:30.629Z,964.03
2018-07-12T09:57:30.624Z,964.04
2018-07-12T09:58:30.628Z,964.06
2018-07-12T09:59:30.634Z,963.97
2018-07-12T10:00:30.637Z,963.99
2018-07-12T10:01:30.642Z,963.99
2018-07-12T10:02:30.647Z,964.00
2018-07-12T10:03:30.663Z,964.02
2018-07-12T10:04:30.721Z,964.03
2018-07-12T10:05:30.664Z,964.09
2018-07-12T10:06:30.670Z,964.13
2018-07-12T10:07:30.674Z,964.11
2018-07-12T10:08:30.680Z,964.18
2018-07-12T10:09:30.685Z,964.04
2018-07-12T10:10:30.730Z,964.04
2018-07-12T10:11:30.696Z,964.11
2018-07-12T10:12:30.701Z,964.05
2018-07-12T10:13:30.708Z,964.01
2018-07-12T10:14:30.711Z,964.01
2018-07-12T10:15:30.728Z,963.99
2018-07-12T10:16:30.723Z,964.00
2018-07-12T10:17:30.731Z,964.01
2018-07-12T10:18:30.805Z,964.03
2018-07-12T10:19:30.765Z,963.98
2018-07-12T10:20:30.782Z,964.05
2018-07-12T10:21:32.996Z,964.01
2018-07-12T10:22:30.767Z,963.99
2018-07-12T10:23:30.763Z,964.02
2018-07-12T10:24:30.768Z,964.01
2018-07-12T10:25:30.823Z,964.03
2018-07-12T10:26:30.783Z,964.02
2018-07-12T10:27:30.784Z,964.06
2018-07-12T10:28:30.799Z,964.03
2018-07-12T10:29:30.794Z,964.11
2018-07-12T10:30:30.802Z,964.07
2018-07-12T10:31:30.807Z,964.10
2018-07-12T10:32:30.811Z,964.18
2018-07-12T10:33:30.820Z,964.13
2018-07-12T10:34:30.825Z,964.22
2018-07-12T10:35:30.828Z,964.13
2018-07-12T10:36:30.833Z,964.11
2018-07-12T10:37:30.838Z,964.09
2018-07-12T10:38:30.848Z,964.08
2018-07-12T10:39:30.850Z,964.10
2018-07-12T10:40:30.866Z,964.09
2018-07-12T10:41:30.866Z,964.06
2018-07-12T10:42:30.867Z,964.09
2018-07-12T10:43:30.877Z,964.08
2018-07-12T10:44:30.890Z,964.11
2018-07-12T10:45:30.886Z,964.12
2018-07-12T10:46:30.891Z,964.13
2018-07-12T10:47:30.895Z,964.22
2018-07-12T10:48:30.899Z,964.11
2018-07-12T10:49:30.912Z,964.07
2018-07-12T10:50:30.923Z,964.14
2018-07-12T10:51:30.926Z,964.22
2018-07-12T10:52:30.922Z,964.19
2018-07-12T10:53:30.927Z,964.20
2018-07-12T10:54:30.933Z,964.14
2018-07-12T10:55:30.939Z,964.14
2018-07-12T10:56:30.944Z,964.12
2018-07-12T10:57:30.949Z,964.10
2018-07-12T10:58:30.957Z,964.14
2018-07-12T10:59:30.958Z,964.15
2018-07-12T11:00:30.965Z,964.11
2018-07-12T11:01:30.975Z,964.11
2018-07-12T11:02:30.975Z,964.09
2018-07-12T11:03:30.983Z,964.22
2018-07-12T11:04:30.999Z,964.13
2018-07-12T11:05:30.998Z,964.08
2018-07-12T11:06:30.997Z,964.10
2018-07-12T11:07:31.005Z,964.18
2018-07-12T11:08:31.005Z,964.17
2018-07-12T11:09:31.015Z,964.12
2018-07-12T11:10:31.045Z,964.07
2018-07-12T11:11:31.027Z,964.11
2018-07-12T11:12:31.030Z,964.14
2018-07-12T11:13:31.037Z,964.12
2018-07-12T11:14:31.044Z,964.14
2018-07-12T11:15:31.046Z,964.15
2018-07-12T11:16:31.053Z,964.11
2018-07-12T11:17:31.059Z,964.18
2018-07-12T11:18:31.064Z,964.12
2018-07-12T11:19:31.069Z,964.20
2018-07-12T11:20:31.078Z,964.13
2018-07-12T11:21:31.081Z,964.20
2018-07-12T11:22:31.100Z,964.12
2018-07-12T11:23:31.092Z,964.18
2018-07-12T11:24:31.097Z,964.14
2018-07-12T11:25:31.150Z,964.11
2018-07-12T11:26:31.117Z,964.16
2018-07-12T11:27:31.123Z,964.15
2018-07-12T11:28:31.125Z,964.03
2018-07-12T11:29:31.127Z,964.05
2018-07-12T11:30:31.139Z,964.10
2018-07-12T11:31:31.137Z,964.02
2018-07-12T11:32:31.143Z,963.98
2018-07-12T11:33:31.149Z,963.99
2018-07-12T11:34:31.156Z,964.03
2018-07-12T11:35:31.161Z,964.09
2018-07-12T11:36:31.169Z,964.07
2018-07-12T11:37:31.172Z,964.09
2018-07-12T11:38:31.176Z,964.12
2018-07-12T11:39:31.186Z,964.07
2018-07-12T11:40:34.034Z,964.11
2018-07-12T11:41:31.196Z,964.16
2018-07-12T11:42:31.206Z,964.12
2018-07-12T11:43:31.208Z,964.09
2018-07-12T11:44:31.213Z,964.10
2018-07-12T11:45:31.220Z,964.09
2018-07-12T11:46:31.224Z,963.98
2018-07-12T11:47:31.229Z,964.03
2018-07-12T11:48:31.238Z,963.90
2018-07-12T11:49:31.242Z,963.96
2018-07-12T11:50:31.252Z,964.06
2018-07-12T11:51:31.255Z,964.00
2018-07-12T11:52:31.279Z,963.96
2018-07-12T11:53:31.265Z,963.94
2018-07-12T11:54:31.270Z,964.04
2018-07-12T11:55:31.276Z,964.09
2018-07-12T11:56:31.285Z,964.06
2018-07-12T11:57:31.288Z,964.03
2018-07-12T11:58:31.292Z,964.03
2018-07-12T11:59:31.299Z,963.96
2018-07-12T12:00:31.306Z,963.94
2018-07-12T12:01:31.340Z,963.94
2018-07-12T12:02:31.317Z,963.95
2018-07-12T12:03:31.326Z,963.90
2018-07-12T12:04:31.326Z,963.94
2018-07-12T12:05:31.337Z,963.93
2018-07-12T12:06:31.341Z,963.90
2018-07-12T12:07:31.344Z,963.89
2018-07-12T12:08:31.418Z,963.89
2018-07-12T12:09:31.359Z,963.92
2018-07-12T12:10:31.407Z,963.91
2018-07-12T12:11:31.371Z,963.86
2018-07-12T12:12:31.374Z,963.87
2018-07-12T12:13:31.380Z,963.90
2018-07-12T12:14:31.387Z,963.90
2018-07-12T12:15:31.390Z,963.89
2018-07-12T12:16:31.405Z,963.93
2018-07-12T12:17:31.410Z,963.93
2018-07-12T12:18:31.409Z,963.83
2018-07-12T12:19:31.464Z,963.81
2018-07-12T12:20:31.422Z,963.82
2018-07-12T12:21:31.431Z,963.79
2018-07-12T12:22:31.433Z,963.81
2018-07-12T12:23:31.441Z,963.80
2018-07-12T12:24:31.445Z,963.81
2018-07-12T12:25:31.461Z,963.82
2018-07-12T12:26:31.454Z,963.83
2018-07-12T12:27:31.563Z,963.83
2018-07-12T12:28:31.477Z,963.88
2018-07-12T12:29:31.473Z,963.87
2018-07-12T12:30:31.481Z,963.85
2018-07-12T12:31:31.484Z,963.89
2018-07-12T12:32:31.490Z,963.90